sensor_id;sensor_type;location;lat;lon;timestamp;pressure;altitude;pressure_sealevel;temperature;humidity
51243;BME280;76969;47.548;18.730;2024-03-02T00:00:08;99134.31;;;7.45;100.00
51243;BME280;76969;47.548;18.730;2024-03-02T00:02:55;99126.97;;;7.34;100.00
51243;BME280;76969;47.548;18.730;2024-03-02T00:05:22;99124.66;;;7.19;100.00
51243;BME280;76969;47.548;18.730;2024-03-02T00:07:56;99119.53;;;7.19;100.00
51243;BME280;76969;47.548;18.730;2024-03-02T00:10:26;99127.19;;;7.17;100.00
51243;BME280;76969;47.548;18.730;2024-03-02T00:12:57;99120.34;;;7.18;100.00
51243;BME280;76969;47.548;18.730;2024-03-02T00:15:45;99130.28;;;7.09;100.00
51243;BME280;76969;47.548;18.730;2024-03-02T00:18:13;99133.22;;;7.18;100.00
51243;BME280;76969;47.548;18.730;2024-03-02T00:20:40;99124.19;;;7.07;100.00
51243;BME280;76969;47.548;18.730;2024-03-02T00:23:07;99122.19;;;7.00;100.00
51243;BME280;76969;47.548;18.730;2024-03-02T00:25:40;99118.34;;;7.11;100.00
51243;BME280;76969;47.548;18.730;2024-03-02T00:28:28;99107.53;;;7.19;100.00
51243;BME280;76969;47.548;18.730;2024-03-02T00:33:31;99112.00;;;7.03;100.00
51243;BME280;76969;47.548;18.730;2024-03-02T00:35:57;99108.25;;;6.94;100.00
51243;BME280;76969;47.548;18.730;2024-03-02T00:38:24;99109.00;;;6.92;100.00
51243;BME280;76969;47.548;18.730;2024-03-02T00:40:50;99106.94;;;6.83;100.00
51243;BME280;76969;47.548;18.730;2024-03-02T00:46:07;99123.06;;;6.79;100.00
51243;BME280;76969;47.548;18.730;2024-03-02T00:48:33;99115.28;;;6.78;100.00
51243;BME280;76969;47.548;18.730;2024-03-02T00:51:05;99112.66;;;6.76;100.00
51243;BME280;76969;47.548;18.730;2024-03-02T00:53:31;99118.03;;;6.82;100.00
51243;BME280;76969;47.548;18.730;2024-03-02T00:55:58;99114.09;;;6.90;100.00
51243;BME280;76969;47.548;18.730;2024-03-02T00:58:25;99119.41;;;6.95;100.00
51243;BME280;76969;47.548;18.730;2024-03-02T01:00:51;99113.12;;;6.88;100.00
51243;BME280;76969;47.548;18.730;2024-03-02T01:03:17;99114.09;;;6.90;100.00
51243;BME280;76969;47.548;18.730;2024-03-02T01:05:44;99113.91;;;6.86;100.00
51243;BME280;76969;47.548;18.730;2024-03-02T01:08:11;99114.41;;;6.77;100.00
51243;BME280;76969;47.548;18.730;2024-03-02T01:10:36;99115.13;;;6.75;100.00
51243;BME280;76969;47.548;18.730;2024-03-02T01:13:02;99112.75;;;6.79;100.00
51243;BME280;76969;47.548;18.730;2024-03-02T01:15:28;99110.91;;;6.75;100.00
51243;BME280;76969;47.548;18.730;2024-03-02T01:17:54;99110.25;;;6.81;100.00
51243;BME280;76969;47.548;18.730;2024-03-02T01:20:20;99107.50;;;6.76;100.00
51243;BME280;76969;47.548;18.730;2024-03-02T01:22:46;99107.50;;;6.76;100.00
51243;BME280;76969;47.548;18.730;2024-03-02T01:25:13;99109.13;;;6.74;100.00
51243;BME280;76969;47.548;18.730;2024-03-02T01:27:39;99106.47;;;6.73;100.00
51243;BME280;76969;47.548;18.730;2024-03-02T01:30:06;99105.34;;;6.66;100.00
51243;BME280;76969;47.548;18.730;2024-03-02T01:32:31;99098.59;;;6.68;100.00
51243;BME280;76969;47.548;18.730;2024-03-02T01:34:57;99102.47;;;6.79;100.00
51243;BME280;76969;47.548;18.730;2024-03-02T01:37:23;99096.66;;;6.83;100.00
51243;BME280;76969;47.548;18.730;2024-03-02T01:39:49;99102.75;;;6.85;100.00
51243;BME280;76969;47.548;18.730;2024-03-02T01:42:15;99097.44;;;6.82;100.00
51243;BME280;76969;47.548;18.730;2024-03-02T01:44:41;99088.81;;;6.80;100.00
51243;BME280;76969;47.548;18.730;2024-03-02T01:47:07;99092.56;;;6.88;100.00
51243;BME280;76969;47.548;18.730;2024-03-02T01:49:33;99093.19;;;7.04;100.00
51243;BME280;76969;47.548;18.730;2024-03-02T01:51:59;99096.56;;;7.03;100.00
51243;BME280;76969;47.548;18.730;2024-03-02T01:54:25;99090.44;;;6.99;100.00
51243;BME280;76969;47.548;18.730;2024-03-02T01:56:51;99094.81;;;7.02;100.00
51243;BME280;76969;47.548;18.730;2024-03-02T01:59:17;99087.97;;;7.23;100.00
51243;BME280;76969;47.548;18.730;2024-03-02T02:01:43;99095.06;;;7.29;100.00
51243;BME280;76969;47.548;18.730;2024-03-02T02:04:09;99090.06;;;7.33;100.00
51243;BME280;76969;47.548;18.730;2024-03-02T02:06:35;99085.50;;;7.26;100.00
51243;BME280;76969;47.548;18.730;2024-03-02T02:09:01;99094.81;;;7.22;100.00
51243;BME280;76969;47.548;18.730;2024-03-02T02:11:27;99095.94;;;7.29;100.00
51243;BME280;76969;47.548;18.730;2024-03-02T02:13:53;99089.78;;;7.25;100.00
51243;BME280;76969;47.548;18.730;2024-03-02T02:16:21;99090.66;;;7.26;100.00
51243;BME280;76969;47.548;18.730;2024-03-02T02:18:47;99095.16;;;7.32;100.00
51243;BME280;76969;47.548;18.730;2024-03-02T02:21:13;99098.53;;;7.51;100.00
51243;BME280;76969;47.548;18.730;2024-03-02T02:23:38;99110.19;;;7.66;100.00
51243;BME280;76969;47.548;18.730;2024-03-02T02:26:04;99115.28;;;7.87;100.00
51243;BME280;76969;47.548;18.730;2024-03-02T02:28:30;99117.22;;;7.92;100.00
51243;BME280;76969;47.548;18.730;2024-03-02T02:30:56;99120.78;;;7.96;100.00
51243;BME280;76969;47.548;18.730;2024-03-02T02:33:22;99119.25;;;8.01;100.00
51243;BME280;76969;47.548;18.730;2024-03-02T02:35:48;99120.97;;;8.00;100.00
51243;BME280;76969;47.548;18.730;2024-03-02T02:38:14;99124.22;;;7.96;100.00
51243;BME280;76969;47.548;18.730;2024-03-02T02:40:40;99123.34;;;7.96;100.00
51243;BME280;76969;47.548;18.730;2024-03-02T02:43:06;99127.53;;;7.92;100.00
51243;BME280;76969;47.548;18.730;2024-03-02T02:45:32;99122.38;;;7.92;100.00
51243;BME280;76969;47.548;18.730;2024-03-02T02:47:58;99129.03;;;7.87;100.00
51243;BME280;76969;47.548;18.730;2024-03-02T02:50:24;99126.31;;;7.83;100.00
51243;BME280;76969;47.548;18.730;2024-03-02T02:52:50;99125.31;;;7.79;100.00
51243;BME280;76969;47.548;18.730;2024-03-02T02:55:16;99123.56;;;7.78;100.00
51243;BME280;76969;47.548;18.730;2024-03-02T02:57:42;99131.22;;;7.76;100.00
51243;BME280;76969;47.548;18.730;2024-03-02T03:00:13;99121.66;;;7.74;100.00
51243;BME280;76969;47.548;18.730;2024-03-02T03:02:41;99127.59;;;7.71;100.00
51243;BME280;76969;47.548;18.730;2024-03-02T03:05:09;99121.47;;;7.68;100.00
51243;BME280;76969;47.548;18.730;2024-03-02T03:07:36;99115.44;;;7.67;100.00
51243;BME280;76969;47.548;18.730;2024-03-02T03:10:03;99112.91;;;7.69;100.00
51243;BME280;76969;47.548;18.730;2024-03-02T03:12:30;99114.56;;;7.67;100.00
51243;BME280;76969;47.548;18.730;2024-03-02T03:14:57;99111.16;;;7.68;100.00
51243;BME280;76969;47.548;18.730;2024-03-02T03:17:23;99118.06;;;7.69;100.00
51243;BME280;76969;47.548;18.730;2024-03-02T03:19:49;99119.47;;;7.61;100.00
51243;BME280;76969;47.548;18.730;2024-03-02T03:22:16;99118.47;;;7.57;100.00
51243;BME280;76969;47.548;18.730;2024-03-02T03:24:42;99120.88;;;7.52;100.00
51243;BME280;76969;47.548;18.730;2024-03-02T03:27:07;99124.19;;;7.50;100.00
51243;BME280;76969;47.548;18.730;2024-03-02T03:29:33;99129.41;;;7.51;100.00
51243;BME280;76969;47.548;18.730;2024-03-02T03:31:59;99117.56;;;7.57;100.00
51243;BME280;76969;47.548;18.730;2024-03-02T03:34:25;99119.34;;;7.58;100.00
51243;BME280;76969;47.548;18.730;2024-03-02T03:36:51;99118.66;;;7.62;100.00
51243;BME280;76969;47.548;18.730;2024-03-02T03:39:17;99119.56;;;7.64;100.00
51243;BME280;76969;47.548;18.730;2024-03-02T03:41:43;99126.47;;;7.65;100.00
51243;BME280;76969;47.548;18.730;2024-03-02T03:44:09;99124.72;;;7.64;100.00
51243;BME280;76969;47.548;18.730;2024-03-02T03:46:35;99125.88;;;7.72;100.00
51243;BME280;76969;47.548;18.730;2024-03-02T03:49:01;99125.78;;;7.69;100.00
51243;BME280;76969;47.548;18.730;2024-03-02T03:51:26;99123.06;;;7.66;100.00
51243;BME280;76969;47.548;18.730;2024-03-02T03:53:52;99125.78;;;7.69;100.00
51243;BME280;76969;47.548;18.730;2024-03-02T03:56:18;99122.91;;;7.84;100.00
51243;BME280;76969;47.548;18.730;2024-03-02T03:58:44;99126.94;;;7.77;100.00
51243;BME280;76969;47.548;18.730;2024-03-02T04:01:10;99130.34;;;7.76;100.00
51243;BME280;76969;47.548;18.730;2024-03-02T04:03:36;99127.25;;;7.85;100.00
51243;BME280;76969;47.548;18.730;2024-03-02T04:06:02;99125.44;;;7.82;100.00
51243;BME280;76969;47.548;18.730;2024-03-02T04:08:28;99119.34;;;7.80;100.00
51243;BME280;76969;47.548;18.730;2024-03-02T04:10:54;99126.94;;;7.77;100.00
51243;BME280;76969;47.548;18.730;2024-03-02T04:13:20;99123.44;;;7.75;100.00
51243;BME280;76969;47.548;18.730;2024-03-02T04:15:45;99134.50;;;7.72;100.00
51243;BME280;76969;47.548;18.730;2024-03-02T04:18:11;99135.59;;;7.79;100.00
51243;BME280;76969;47.548;18.730;2024-03-02T04:20:37;99136.53;;;7.81;100.00
51243;BME280;76969;47.548;18.730;2024-03-02T04:23:03;99135.75;;;7.82;100.00
51243;BME280;76969;47.548;18.730;2024-03-02T04:25:29;99140.75;;;7.79;100.00
51243;BME280;76969;47.548;18.730;2024-03-02T04:27:55;99144.62;;;7.90;100.00
51243;BME280;76969;47.548;18.730;2024-03-02T04:30:21;99146.03;;;7.82;100.00
51243;BME280;76969;47.548;18.730;2024-03-02T04:32:47;99151.06;;;7.79;100.00
51243;BME280;76969;47.548;18.730;2024-03-02T04:35:14;99151.06;;;7.79;100.00
51243;BME280;76969;47.548;18.730;2024-03-02T04:37:40;99146.91;;;7.83;100.00
51243;BME280;76969;47.548;18.730;2024-03-02T04:40:06;99154.34;;;7.75;100.00
51243;BME280;76969;47.548;18.730;2024-03-02T04:42:36;99157.09;;;7.79;100.00
51243;BME280;76969;47.548;18.730;2024-03-02T04:45:02;99156.97;;;7.76;100.00
51243;BME280;76969;47.548;18.730;2024-03-02T04:47:28;99155.97;;;7.73;100.00
51243;BME280;76969;47.548;18.730;2024-03-02T04:49:54;99170.31;;;7.66;100.00
51243;BME280;76969;47.548;18.730;2024-03-02T04:52:19;99160.91;;;7.67;100.00
51243;BME280;76969;47.548;18.730;2024-03-02T04:54:45;99167.09;;;7.72;100.00
51243;BME280;76969;47.548;18.730;2024-03-02T04:57:30;99165.91;;;7.64;100.00
51243;BME280;76969;47.548;18.730;2024-03-02T04:59:56;99169.94;;;7.57;100.00
51243;BME280;76969;47.548;18.730;2024-03-02T05:02:22;99175.00;;;7.54;100.00
51243;BME280;76969;47.548;18.730;2024-03-02T05:04:47;99173.22;;;7.53;100.00
51243;BME280;76969;47.548;18.730;2024-03-02T05:07:14;99171.53;;;7.53;100.00
51243;BME280;76969;47.548;18.730;2024-03-02T05:09:40;99170.72;;;7.55;100.00
51243;BME280;76969;47.548;18.730;2024-03-02T05:12:06;99174.47;;;7.63;100.00
51243;BME280;76969;47.548;18.730;2024-03-02T05:15:01;99170.72;;;7.55;100.00
51243;BME280;76969;47.548;18.730;2024-03-02T05:17:27;99169.06;;;7.57;100.00
51243;BME280;76969;47.548;18.730;2024-03-02T05:19:53;99175.75;;;7.51;100.00
51243;BME280;76969;47.548;18.730;2024-03-02T05:22:19;99176.69;;;7.53;100.00
51243;BME280;76969;47.548;18.730;2024-03-02T05:24:45;99170.50;;;7.50;100.00
51243;BME280;76969;47.548;18.730;2024-03-02T05:27:11;99179.13;;;7.50;100.00
51243;BME280;76969;47.548;18.730;2024-03-02T05:29:36;99184.25;;;7.50;100.00
51243;BME280;76969;47.548;18.730;2024-03-02T05:32:02;99183.38;;;7.50;100.00
51243;BME280;76969;47.548;18.730;2024-03-02T05:34:28;99180.75;;;7.48;100.00
51243;BME280;76969;47.548;18.730;2024-03-02T05:36:56;99184.97;;;7.46;100.00
51243;BME280;76969;47.548;18.730;2024-03-02T05:39:23;99178.91;;;7.44;100.00
51243;BME280;76969;47.548;18.730;2024-03-02T05:41:49;99180.41;;;7.39;100.00
51243;BME280;76969;47.548;18.730;2024-03-02T05:44:15;99180.50;;;7.42;100.00
51243;BME280;76969;47.548;18.730;2024-03-02T05:46:41;99177.13;;;7.43;100.00
51243;BME280;76969;47.548;18.730;2024-03-02T05:49:07;99179.78;;;7.45;100.00
51243;BME280;76969;47.548;18.730;2024-03-02T05:51:36;99182.25;;;7.43;100.00
51243;BME280;76969;47.548;18.730;2024-03-02T05:54:02;99183.78;;;7.38;100.00
51243;BME280;76969;47.548;18.730;2024-03-02T05:56:28;99182.88;;;7.36;100.00
51243;BME280;76969;47.548;18.730;2024-03-02T05:58:54;99183.75;;;7.37;100.00
51243;BME280;76969;47.548;18.730;2024-03-02T06:01:47;99185.44;;;7.36;100.00
51243;BME280;76969;47.548;18.730;2024-03-02T06:04:16;99182.03;;;7.37;100.00
51243;BME280;76969;47.548;18.730;2024-03-02T06:06:42;99187.19;;;7.37;100.00
51243;BME280;76969;47.548;18.730;2024-03-02T06:09:09;99188.88;;;7.37;100.00
51243;BME280;76969;47.548;18.730;2024-03-02T06:11:38;99188.78;;;7.35;100.00
51243;BME280;76969;47.548;18.730;2024-03-02T06:14:05;99184.47;;;7.34;100.00
51243;BME280;76969;47.548;18.730;2024-03-02T06:16:31;99180.28;;;7.36;100.00
51243;BME280;76969;47.548;18.730;2024-03-02T06:18:58;99183.66;;;7.35;100.00
51243;BME280;76969;47.548;18.730;2024-03-02T06:21:24;99182.97;;;7.39;100.00
51243;BME280;76969;47.548;18.730;2024-03-02T06:23:50;99187.31;;;7.40;100.00
51243;BME280;76969;47.548;18.730;2024-03-02T06:26:16;99198.47;;;7.41;100.00
51243;BME280;76969;47.548;18.730;2024-03-02T06:28:43;99193.47;;;7.44;100.00
51243;BME280;76969;47.548;18.730;2024-03-02T06:31:09;99205.00;;;7.53;100.00
51243;BME280;76969;47.548;18.730;2024-03-02T06:33:35;99209.37;;;7.56;100.00
51243;BME280;76969;47.548;18.730;2024-03-02T06:36:01;99211.13;;;7.57;100.00
51243;BME280;76969;47.548;18.730;2024-03-02T06:38:27;99212.00;;;7.58;100.00
51243;BME280;76969;47.548;18.730;2024-03-02T06:40:53;99216.19;;;7.54;100.00
51243;BME280;76969;47.548;18.730;2024-03-02T06:43:21;99218.91;;;7.59;100.00
51243;BME280;76969;47.548;18.730;2024-03-02T06:45:51;99216.47;;;7.62;100.00
51243;BME280;76969;47.548;18.730;2024-03-02T06:48:17;99227.72;;;7.64;100.00
51243;BME280;76969;47.548;18.730;2024-03-02T06:50:49;99222.31;;;7.58;100.00
51243;BME280;76969;47.548;18.730;2024-03-02T06:53:16;99224.22;;;7.62;100.00
51243;BME280;76969;47.548;18.730;2024-03-02T06:55:45;99218.91;;;7.59;100.00
51243;BME280;76969;47.548;18.730;2024-03-02T06:58:13;99218.66;;;7.73;100.00
51243;BME280;76969;47.548;18.730;2024-03-02T07:00:38;99224.81;;;7.77;100.00
51243;BME280;76969;47.548;18.730;2024-03-02T07:03:04;99224.66;;;7.74;100.00
51243;BME280;76969;47.548;18.730;2024-03-02T07:05:30;99226.69;;;7.81;100.00
51243;BME280;76969;47.548;18.730;2024-03-02T07:07:56;99229.97;;;7.77;100.00
51243;BME280;76969;47.548;18.730;2024-03-02T07:10:22;99231.91;;;7.83;100.00
51243;BME280;76969;47.548;18.730;2024-03-02T07:12:48;99230.31;;;7.86;100.00
51243;BME280;76969;47.548;18.730;2024-03-02T07:15:14;99230.31;;;7.86;100.00
51243;BME280;76969;47.548;18.730;2024-03-02T07:17:52;99229.63;;;7.90;100.00
51243;BME280;76969;47.548;18.730;2024-03-02T07:20:18;99222.84;;;7.92;100.00
51243;BME280;76969;47.548;18.730;2024-03-02T07:22:44;99235.00;;;7.96;100.00
51243;BME280;76969;47.548;18.730;2024-03-02T07:25:10;99232.81;;;8.05;100.00
51243;BME280;76969;47.548;18.730;2024-03-02T07:27:36;99231.97;;;8.06;100.00
51243;BME280;76969;47.548;18.730;2024-03-02T07:30:05;99232.81;;;8.05;100.00
51243;BME280;76969;47.548;18.730;2024-03-02T07:32:31;99227.03;;;8.13;100.00
51243;BME280;76969;47.548;18.730;2024-03-02T07:34:56;99228.34;;;8.24;100.00
51243;BME280;76969;47.548;18.730;2024-03-02T07:37:23;99226.69;;;8.26;100.00
51243;BME280;76969;47.548;18.730;2024-03-02T07:39:50;99233.59;;;8.27;100.00
51243;BME280;76969;47.548;18.730;2024-03-02T07:42:17;99235.34;;;8.28;100.00
51243;BME280;76969;47.548;18.730;2024-03-02T07:44:46;99230.31;;;8.31;100.00
51243;BME280;76969;47.548;18.730;2024-03-02T07:47:12;99231.84;;;8.26;100.00
51243;BME280;76969;47.548;18.730;2024-03-02T07:49:38;99240.63;;;8.31;100.00
51243;BME280;76969;47.548;18.730;2024-03-02T07:52:04;99234.47;;;8.27;100.00
51243;BME280;76969;47.548;18.730;2024-03-02T07:54:29;99237.22;;;8.32;100.00
51243;BME280;76969;47.548;18.730;2024-03-02T07:56:55;99239.16;;;8.36;100.00
51243;BME280;76969;47.548;18.730;2024-03-02T07:59:21;99235.66;;;8.35;100.00
51243;BME280;76969;47.548;18.730;2024-03-02T08:01:48;99244.16;;;8.33;100.00
51243;BME280;76969;47.548;18.730;2024-03-02T08:04:14;99245.59;;;8.26;100.00
51243;BME280;76969;47.548;18.730;2024-03-02T08:06:40;99246.28;;;8.21;100.00
51243;BME280;76969;47.548;18.730;2024-03-02T08:09:06;99247.06;;;8.20;100.00
51243;BME280;76969;47.548;18.730;2024-03-02T08:11:36;99250.47;;;8.19;100.00
51243;BME280;76969;47.548;18.730;2024-03-02T08:14:03;99244.63;;;8.23;100.00
51243;BME280;76969;47.548;18.730;2024-03-02T08:16:29;99255.56;;;8.17;100.00
51243;BME280;76969;47.548;18.730;2024-03-02T08:18:55;99247.75;;;8.14;100.00
51243;BME280;76969;47.548;18.730;2024-03-02T08:21:24;99253.87;;;8.18;100.00
51243;BME280;76969;47.548;18.730;2024-03-02T08:23:50;99243.69;;;8.21;100.00
51243;BME280;76969;47.548;18.730;2024-03-02T08:26:16;99259.94;;;8.20;100.00
51243;BME280;76969;47.548;18.730;2024-03-02T08:28:42;99254.87;;;8.21;100.00
51243;BME280;76969;47.548;18.730;2024-03-02T08:31:08;99250.59;;;8.22;100.00
51243;BME280;76969;47.548;18.730;2024-03-02T08:33:35;99256.63;;;8.22;100.00
51243;BME280;76969;47.548;18.730;2024-03-02T08:36:01;99255.63;;;8.19;100.00
51243;BME280;76969;47.548;18.730;2024-03-02T08:38:27;99256.78;;;8.27;100.00
51243;BME280;76969;47.548;18.730;2024-03-02T08:40:53;99260.34;;;8.29;100.00
51243;BME280;76969;47.548;18.730;2024-03-02T08:43:19;99255.41;;;8.35;100.00
51243;BME280;76969;47.548;18.730;2024-03-02T08:45:45;99260.38;;;8.30;100.00
51243;BME280;76969;47.548;18.730;2024-03-02T08:48:12;99251.78;;;8.30;100.00
51243;BME280;76969;47.548;18.730;2024-03-02T08:50:38;99247.69;;;8.35;100.00
51243;BME280;76969;47.548;18.730;2024-03-02T08:53:04;99254.72;;;8.39;100.00
51243;BME280;76969;47.548;18.730;2024-03-02T08:55:30;99255.66;;;8.41;100.00
51243;BME280;76969;47.548;18.730;2024-03-02T08:57:56;99254.97;;;8.45;100.00
51243;BME280;76969;47.548;18.730;2024-03-02T09:00:23;99255.06;;;8.48;100.00
51243;BME280;76969;47.548;18.730;2024-03-02T09:02:49;99258.38;;;8.44;100.00
51243;BME280;76969;47.548;18.730;2024-03-02T09:05:15;99255.06;;;8.48;100.00
51243;BME280;76969;47.548;18.730;2024-03-02T09:07:41;99259.25;;;8.45;100.00
51243;BME280;76969;47.548;18.730;2024-03-02T09:10:07;99259.88;;;8.39;100.00
51243;BME280;76969;47.548;18.730;2024-03-02T09:12:34;99262.47;;;8.39;100.00
51243;BME280;76969;47.548;18.730;2024-03-02T09:15:03;99263.53;;;8.44;100.00
51243;BME280;76969;47.548;18.730;2024-03-02T09:17:30;99261.97;;;8.49;100.00
51243;BME280;76969;47.548;18.730;2024-03-02T09:19:55;99268.78;;;8.47;100.00
51243;BME280;76969;47.548;18.730;2024-03-02T09:22:22;99262.50;;;8.41;100.00
51243;BME280;76969;47.548;18.730;2024-03-02T09:24:48;99265.03;;;8.39;100.00
51243;BME280;76969;47.548;18.730;2024-03-02T09:27:14;99268.69;;;8.44;100.00
51243;BME280;76969;47.548;18.730;2024-03-02T09:29:40;99265.50;;;8.51;100.00
51243;BME280;76969;47.548;18.730;2024-03-02T09:32:07;99265.72;;;8.57;100.00
51243;BME280;76969;47.548;18.730;2024-03-02T09:34:33;99265.94;;;8.63;100.00
51243;BME280;76969;47.548;18.730;2024-03-02T09:36:59;99269.44;;;8.66;100.00
51243;BME280;76969;47.548;18.730;2024-03-02T09:39:25;99262.66;;;8.68;100.00
51243;BME280;76969;47.548;18.730;2024-03-02T09:41:51;99267.59;;;8.61;100.00
51243;BME280;76969;47.548;18.730;2024-03-02T09:44:17;99263.97;;;8.56;100.00
51243;BME280;76969;47.548;18.730;2024-03-02T09:46:43;99273.62;;;8.62;100.00
51243;BME280;76969;47.548;18.730;2024-03-02T09:49:12;99267.91;;;8.71;100.00
51243;BME280;76969;47.548;18.730;2024-03-02T09:51:38;99262.81;;;8.72;100.00
51243;BME280;76969;47.548;18.730;2024-03-02T09:54:07;99266.41;;;8.76;100.00
51243;BME280;76969;47.548;18.730;2024-03-02T09:56:33;99266.16;;;8.70;100.00
51243;BME280;76969;47.548;18.730;2024-03-02T09:58:59;99258.38;;;8.68;100.00
51243;BME280;76969;47.548;18.730;2024-03-02T10:01:25;99260.69;;;8.60;100.00
51243;BME280;76969;47.548;18.730;2024-03-02T10:03:51;99266.75;;;8.62;100.00
51243;BME280;76969;47.548;18.730;2024-03-02T10:08:45;99261.44;;;8.58;100.00
51243;BME280;76969;47.548;18.730;2024-03-02T10:11:25;99263.91;;;8.55;100.00
51243;BME280;76969;47.548;18.730;2024-03-02T10:13:51;99265.72;;;8.57;100.00
51243;BME280;76969;47.548;18.730;2024-03-02T10:16:24;99258.47;;;8.47;100.00
51243;BME280;76969;47.548;18.730;2024-03-02T10:18:50;99263.38;;;8.41;100.00
51243;BME280;76969;47.548;18.730;2024-03-02T10:21:16;99264.09;;;8.37;100.00
51243;BME280;76969;47.548;18.730;2024-03-02T10:23:42;99261.63;;;8.40;100.00
51243;BME280;76969;47.548;18.730;2024-03-02T10:26:16;99266.78;;;8.40;100.00
51243;BME280;76969;47.548;18.730;2024-03-02T10:28:47;99265.28;;;8.45;100.00
51243;BME280;76969;47.548;18.730;2024-03-02T10:31:13;99262.69;;;8.45;100.00
51243;BME280;76969;47.548;18.730;2024-03-02T10:33:40;99272.19;;;8.46;100.00
51243;BME280;76969;47.548;18.730;2024-03-02T10:36:05;99264.41;;;8.45;100.00
51243;BME280;76969;47.548;18.730;2024-03-02T10:38:32;99265.28;;;8.45;100.00
51243;BME280;76969;47.548;18.730;2024-03-02T10:40:59;99266.25;;;8.49;100.00
51243;BME280;76969;47.548;18.730;2024-03-02T10:43:25;99268.53;;;8.41;100.00
51243;BME280;76969;47.548;18.730;2024-03-02T10:45:52;99269.97;;;8.34;100.00
51243;BME280;76969;47.548;18.730;2024-03-02T10:48:19;99266.69;;;8.37;100.00
51243;BME280;76969;47.548;18.730;2024-03-02T10:50:45;99257.34;;;8.41;100.00
51243;BME280;76969;47.548;18.730;2024-03-02T10:53:11;99261.72;;;8.43;100.00
51243;BME280;76969;47.548;18.730;2024-03-02T10:55:36;99258.38;;;8.44;100.00
51243;BME280;76969;47.548;18.730;2024-03-02T10:58:04;99261.03;;;8.47;100.00
51243;BME280;76969;47.548;18.730;2024-03-02T11:00:33;99258.56;;;8.50;100.00
51243;BME280;76969;47.548;18.730;2024-03-02T11:03:07;99254.47;;;8.55;100.00
51243;BME280;76969;47.548;18.730;2024-03-02T11:05:38;99251.41;;;8.66;100.00
51243;BME280;76969;47.548;18.730;2024-03-02T11:08:08;99254.09;;;8.69;100.00
51243;BME280;76969;47.548;18.730;2024-03-02T11:10:41;99246.59;;;8.75;100.00
51243;BME280;76969;47.548;18.730;2024-03-02T11:13:09;99249.38;;;8.81;100.00
51243;BME280;76969;47.548;18.730;2024-03-02T11:15:35;99251.19;;;8.83;100.00
51243;BME280;76969;47.548;18.730;2024-03-02T11:18:05;99246.13;;;8.86;100.00
51243;BME280;76969;47.548;18.730;2024-03-02T11:20:39;99248.06;;;8.92;100.00
51243;BME280;76969;47.548;18.730;2024-03-02T11:23:06;99246.41;;;8.94;100.00
51243;BME280;76969;47.548;18.730;2024-03-02T11:25:32;99237.75;;;8.92;100.00
51243;BME280;76969;47.548;18.730;2024-03-02T11:27:59;99237.97;;;8.98;100.00
51243;BME280;76969;47.548;18.730;2024-03-02T11:33:04;99243.12;;;8.98;100.00
51243;BME280;76969;47.548;18.730;2024-03-02T11:35:35;99237.22;;;9.02;100.00
51243;BME280;76969;47.548;18.730;2024-03-02T11:38:01;99229.63;;;9.05;100.00
51243;BME280;76969;47.548;18.730;2024-03-02T11:40:29;99223.50;;;9.03;100.00
51243;BME280;76969;47.548;18.730;2024-03-02T11:42:56;99234.66;;;9.02;100.00
51243;BME280;76969;47.548;18.730;2024-03-02T11:45:28;99231.16;;;9.00;100.00
51243;BME280;76969;47.548;18.730;2024-03-02T11:47:57;99231.09;;;8.99;100.00
51243;BME280;76969;47.548;18.730;2024-03-02T11:50:39;99234.44;;;8.96;100.00
51243;BME280;76969;47.548;18.730;2024-03-02T11:53:07;99229.50;;;9.02;100.00
51243;BME280;76969;47.548;18.730;2024-03-02T11:55:37;99231.37;;;9.06;100.00
51243;BME280;76969;47.548;18.730;2024-03-02T11:58:03;99227.16;;;9.10;100.00
51243;BME280;76969;47.548;18.730;2024-03-02T12:00:30;99225.38;;;9.07;100.00
51243;BME280;76969;47.548;18.730;2024-03-02T12:03:09;99234.16;;;9.12;100.00
51243;BME280;76969;47.548;18.730;2024-03-02T12:05:37;99228.16;;;9.13;100.00
51243;BME280;76969;47.548;18.730;2024-03-02T12:08:05;99230.31;;;9.27;100.00
51243;BME280;76969;47.548;18.730;2024-03-02T12:10:32;99227.91;;;9.31;100.00
51243;BME280;76969;47.548;18.730;2024-03-02T12:12:59;99225.91;;;9.23;100.00
51243;BME280;76969;47.548;18.730;2024-03-02T12:15:27;99220.56;;;9.18;100.00
51243;BME280;76969;47.548;18.730;2024-03-02T12:17:57;99225.38;;;9.33;100.00
51243;BME280;76969;47.548;18.730;2024-03-02T12:20:24;99225.66;;;9.42;100.00
51243;BME280;76969;47.548;18.730;2024-03-02T12:22:51;99219.38;;;9.59;100.00
51243;BME280;76969;47.548;18.730;2024-03-02T12:25:19;99216.91;;;9.64;100.00
51243;BME280;76969;47.548;18.730;2024-03-02T12:27:46;99221.59;;;9.48;100.00
51243;BME280;76969;47.548;18.730;2024-03-02T12:30:13;99218.97;;;9.47;100.00
51243;BME280;76969;47.548;18.730;2024-03-02T12:32:42;99220.62;;;9.45;100.00
51243;BME280;76969;47.548;18.730;2024-03-02T12:35:10;99225.56;;;9.39;100.00
51243;BME280;76969;47.548;18.730;2024-03-02T12:37:52;99225.56;;;9.39;100.00
51243;BME280;76969;47.548;18.730;2024-03-02T12:40:19;99220.50;;;9.42;100.00
51243;BME280;76969;47.548;18.730;2024-03-02T12:42:46;99220.62;;;9.45;100.00
51243;BME280;76969;47.548;18.730;2024-03-02T12:45:13;99225.78;;;9.45;100.00
51243;BME280;76969;47.548;18.730;2024-03-02T12:47:40;99225.63;;;9.40;100.00
51243;BME280;76969;47.548;18.730;2024-03-02T12:50:07;99220.62;;;9.45;100.00
51243;BME280;76969;47.548;18.730;2024-03-02T12:52:33;99228.44;;;9.48;100.00
51243;BME280;76969;47.548;18.730;2024-03-02T12:55:00;99221.34;;;9.41;100.00
51243;BME280;76969;47.548;18.730;2024-03-02T12:57:30;99227.41;;;9.43;100.00
51243;BME280;76969;47.548;18.730;2024-03-02T12:59:59;99222.16;;;9.40;100.00